createdAt,value
2018-06-25T00:00:22.776Z,9.07
2018-06-25T00:04:26.505Z,8.03
2018-06-25T00:08:30.721Z,8.30
2018-06-25T00:12:34.261Z,7.50
2018-06-25T00:16:37.863Z,7.40
2018-06-25T00:20:41.566Z,7.47
2018-06-25T00:24:48.355Z,7.47
2018-06-25T00:28:52.011Z,7.37
2018-06-25T00:32:56.213Z,6.73
2018-06-25T00:36:59.775Z,6.73
2018-06-25T00:41:03.347Z,6.10
2018-06-25T00:45:10.278Z,5.70
2018-06-25T00:49:13.798Z,6.70
2018-06-25T00:53:17.415Z,5.87
2018-06-25T00:57:20.939Z,5.00
2018-06-25T01:01:24.750Z,5.53
2018-06-25T01:05:28.298Z,5.10
2018-06-25T01:09:31.903Z,4.70
2018-06-25T01:13:35.434Z,5.10
2018-06-25T01:17:39.002Z,4.93
2018-06-25T01:21:42.647Z,5.60
2018-06-25T01:25:48.250Z,4.60
2018-06-25T01:29:51.759Z,4.63
2018-06-25T01:33:55.499Z,4.70
2018-06-25T01:37:59.039Z,4.53
2018-06-25T01:42:02.772Z,4.60
2018-06-25T01:46:06.312Z,5.23
2018-06-25T01:50:09.859Z,5.00
2018-06-25T01:54:13.385Z,5.37
2018-06-25T01:58:17.016Z,5.87
2018-06-25T02:02:23.688Z,5.90
2018-06-25T02:06:27.590Z,7.20
2018-06-25T02:10:31.144Z,6.90
2018-06-25T02:14:34.833Z,5.80
2018-06-25T02:18:38.348Z,6.60
2018-06-25T02:22:42.393Z,6.57
2018-06-25T02:26:45.939Z,6.10
2018-06-25T02:30:49.527Z,6.00
2018-06-25T02:34:53.145Z,6.10
2018-06-25T02:38:56.762Z,6.20
2018-06-25T02:43:00.291Z,6.33
2018-06-25T02:47:04.283Z,6.17
2018-06-25T02:51:18.347Z,6.60
2018-06-25T02:55:22.339Z,5.83
2018-06-25T02:59:25.993Z,6.17
2018-06-25T03:03:35.446Z,6.03
2018-06-25T03:07:39.050Z,6.03
2018-06-25T03:11:42.582Z,5.40
2018-06-25T03:15:48.136Z,5.70
2018-06-25T03:19:51.382Z,4.37
2018-06-25T03:23:55.039Z,4.77
2018-06-25T03:27:58.727Z,4.30
2018-06-25T03:32:01.929Z,4.20
2018-06-25T03:36:05.639Z,4.23
2018-06-25T03:40:09.179Z,4.00
2018-06-25T03:44:13.091Z,4.10
2018-06-25T03:48:16.603Z,4.07
2018-06-25T03:52:20.173Z,4.00
2018-06-25T03:56:24.596Z,3.50
2018-06-25T04:00:28.250Z,3.23
2018-06-25T04:04:32.583Z,3.40
2018-06-25T04:08:36.482Z,3.30
2018-06-25T04:12:40.014Z,3.67
2018-06-25T04:16:45.075Z,3.53
2018-06-25T04:20:48.665Z,3.20
2018-06-25T04:24:52.430Z,2.77
2018-06-25T04:28:55.999Z,3.00
2018-06-25T04:32:59.579Z,2.40
2018-06-25T04:37:05.220Z,2.40
2018-06-25T04:41:08.852Z,2.90
2018-06-25T04:45:12.421Z,2.40
2018-06-25T04:49:15.819Z,2.37
2018-06-25T04:53:19.466Z,2.30
2018-06-25T04:57:40.029Z,2.40
2018-06-25T05:01:43.567Z,1.80
2018-06-25T05:05:47.126Z,1.90
2018-06-25T05:09:59.078Z,1.90
2018-06-25T05:14:02.679Z,1.77
2018-06-25T05:18:11.822Z,1.90
2018-06-25T05:22:15.339Z,2.17
2018-06-25T05:26:19.036Z,2.43
2018-06-25T05:30:23.894Z,3.20
2018-06-25T05:34:27.487Z,3.10
2018-06-25T05:38:31.088Z,4.07
2018-06-25T05:42:34.659Z,4.27
2018-06-25T05:46:38.686Z,3.70
2018-06-25T05:50:42.233Z,3.40
2018-06-25T05:54:45.942Z,3.67
2018-06-25T05:58:52.766Z,3.93
2018-06-25T06:02:56.394Z,4.03
2018-06-25T06:06:59.965Z,5.07
2018-06-25T06:11:03.623Z,5.10
2018-06-25T06:15:07.166Z,5.40
2018-06-25T06:19:10.818Z,5.43
2018-06-25T06:23:14.379Z,5.73
2018-06-25T06:27:24.812Z,5.97
2018-06-25T06:31:35.561Z,5.50
2018-06-25T06:35:39.272Z,5.23
2018-06-25T06:39:42.991Z,5.30
2018-06-25T06:43:47.585Z,5.37
2018-06-25T06:47:51.173Z,5.70
2018-06-25T06:51:55.980Z,4.70
2018-06-25T06:56:00.606Z,5.43
2018-06-25T07:00:05.322Z,4.10
2018-06-25T07:04:08.891Z,4.00
2018-06-25T07:08:14.775Z,3.50
2018-06-25T07:12:18.532Z,3.53
2018-06-25T07:16:22.554Z,3.33
2018-06-25T07:20:26.280Z,3.03
2018-06-25T07:24:32.019Z,2.70
2018-06-25T07:28:35.672Z,2.40
2018-06-25T07:32:39.378Z,2.10
2018-06-25T07:36:43.061Z,2.10
2018-06-25T07:40:46.797Z,1.90
2018-06-25T07:44:50.388Z,1.80
2018-06-25T07:48:55.011Z,1.87
2018-06-25T07:52:58.589Z,1.30
2018-06-25T07:57:02.227Z,1.60
2018-06-25T08:01:05.795Z,1.43
2018-06-25T08:05:09.533Z,1.30
2018-06-25T08:09:13.286Z,1.30
2018-06-25T08:13:26.757Z,1.30
2018-06-25T08:17:33.843Z,1.37
2018-06-25T08:21:42.552Z,1.33
2018-06-25T08:25:46.095Z,1.40
2018-06-25T08:29:52.486Z,1.17
2018-06-25T08:33:57.149Z,1.63
2018-06-25T08:38:00.672Z,1.60
2018-06-25T08:42:04.339Z,2.10
2018-06-25T08:46:08.038Z,1.53
2018-06-25T08:50:11.613Z,1.60
2018-06-25T08:54:16.329Z,2.00
2018-06-25T08:58:24.772Z,1.70
2018-06-25T09:02:28.898Z,1.87
2018-06-25T09:06:32.557Z,1.70
2018-06-25T09:10:36.190Z,1.83
2018-06-25T09:14:39.790Z,1.83
2018-06-25T09:18:48.611Z,1.70
2018-06-25T09:22:52.208Z,1.73
2018-06-25T09:26:56.426Z,1.40
2018-06-25T09:31:00.090Z,1.53
2018-06-25T09:35:03.966Z,1.53
2018-06-25T09:39:09.684Z,1.53
2018-06-25T09:43:13.319Z,1.37
2018-06-25T09:47:16.927Z,1.63
2018-06-25T09:51:20.707Z,1.47
2018-06-25T09:55:24.360Z,1.30
2018-06-25T09:59:28.136Z,1.40
2018-06-25T10:03:31.781Z,1.53
2018-06-25T10:07:36.179Z,1.37
2018-06-25T10:11:40.347Z,1.37
2018-06-25T10:15:43.996Z,1.20
2018-06-25T10:19:47.568Z,1.40
2018-06-25T10:23:51.163Z,1.30
2018-06-25T10:27:55.419Z,1.40
2018-06-25T10:31:59.161Z,1.57
2018-06-25T10:36:02.798Z,1.30
2018-06-25T10:40:08.751Z,1.30
2018-06-25T10:44:12.746Z,1.20
2018-06-25T10:48:16.461Z,1.27
2018-06-25T10:52:20.034Z,1.40
2018-06-25T10:56:23.965Z,1.40
2018-06-25T11:00:27.549Z,1.27
2018-06-25T11:04:31.126Z,1.33
2018-06-25T11:08:34.880Z,1.30
2018-06-25T11:12:38.863Z,1.40
2018-06-25T11:16:42.505Z,1.23
2018-06-25T11:20:46.060Z,1.53
2018-06-25T11:24:49.698Z,1.20
2018-06-25T11:28:53.342Z,1.53
2018-06-25T11:32:56.985Z,1.20
2018-06-25T11:37:00.662Z,1.47
2018-06-25T11:41:12.977Z,1.10
2018-06-25T11:45:16.813Z,1.30
2018-06-25T11:49:20.400Z,1.40
2018-06-25T11:53:24.313Z,1.50
2018-06-25T11:57:27.963Z,1.50
2018-06-25T12:01:31.634Z,1.50
2018-06-25T12:05:40.151Z,1.23
2018-06-25T12:09:44.435Z,1.60
2018-06-25T12:13:48.118Z,1.53
2018-06-25T12:17:51.886Z,2.00
2018-06-25T12:21:55.636Z,1.60
2018-06-25T12:25:59.835Z,2.10
2018-06-25T12:30:10.692Z,1.70
2018-06-25T12:34:15.053Z,1.87
2018-06-25T12:38:24.273Z,1.50
2018-06-25T12:42:28.329Z,1.80
2018-06-25T12:46:32.016Z,1.87
2018-06-25T12:50:35.974Z,2.07
2018-06-25T12:54:41.672Z,2.53
2018-06-25T12:58:45.290Z,2.53
2018-06-25T13:02:54.663Z,2.50
2018-06-25T13:06:58.383Z,2.47
2018-06-25T13:11:01.945Z,2.70
2018-06-25T13:15:05.718Z,2.47
2018-06-25T13:19:09.295Z,2.93
2018-06-25T13:23:13.198Z,3.13
2018-06-25T13:27:17.003Z,3.10
2018-06-25T13:31:24.508Z,2.83
2018-06-25T13:35:30.203Z,3.10
2018-06-25T13:39:34.590Z,3.20
2018-06-25T13:43:38.412Z,3.50
2018-06-25T13:47:42.857Z,3.43
2018-06-25T13:51:46.527Z,2.90
2018-06-25T13:55:50.280Z,3.23
2018-06-25T13:59:54.079Z,3.20
2018-06-25T14:03:57.678Z,3.10
2018-06-25T14:08:02.231Z,3.27
2018-06-25T14:12:06.091Z,3.20
2018-06-25T14:16:09.745Z,3.17
2018-06-25T14:20:14.387Z,3.27
2018-06-25T14:24:24.384Z,3.60
2018-06-25T14:28:50.960Z,3.83
2018-06-25T14:33:04.795Z,3.77
2018-06-25T14:37:10.330Z,3.90
2018-06-25T14:41:14.931Z,3.83
2018-06-25T14:45:34.910Z,4.20
2018-06-25T14:49:38.456Z,4.00
2018-06-25T14:53:42.870Z,4.17
2018-06-25T14:57:46.480Z,4.43
2018-06-25T15:01:51.140Z,4.40
2018-06-25T15:05:54.877Z,4.43
2018-06-25T15:10:00.584Z,4.90
2018-06-25T15:14:04.212Z,4.53
2018-06-25T15:18:13.591Z,5.70
2018-06-25T15:22:18.724Z,3.93
2018-06-25T15:26:22.710Z,4.60
2018-06-25T15:30:27.265Z,4.23
2018-06-25T15:34:30.962Z,4.60
2018-06-25T15:38:34.658Z,4.80
2018-06-25T15:42:42.105Z,4.40
2018-06-25T15:46:45.726Z,4.60
2018-06-25T15:50:50.490Z,4.80
2018-06-25T15:54:54.059Z,4.50
2018-06-25T15:58:57.802Z,4.20
2018-06-25T16:03:03.439Z,4.17
2018-06-25T16:07:10.871Z,4.23
2018-06-25T16:11:14.566Z,4.07
2018-06-25T16:15:18.158Z,4.07
2018-06-25T16:19:22.829Z,3.97
2018-06-25T16:23:26.539Z,4.07
2018-06-25T16:27:30.186Z,4.10
2018-06-25T16:31:40.900Z,3.93
2018-06-25T16:35:51.661Z,3.63
2018-06-25T16:40:01.236Z,3.87
2018-06-25T16:44:05.035Z,3.70
2018-06-25T16:48:12.466Z,3.90
2018-06-25T16:52:18.014Z,3.90
2018-06-25T16:56:27.035Z,4.40
2018-06-25T17:00:37.430Z,3.80
2018-06-25T17:04:41.711Z,4.47
2018-06-25T17:08:45.750Z,4.77
2018-06-25T17:12:51.754Z,5.17
2018-06-25T17:16:57.397Z,5.40
2018-06-25T17:21:01.028Z,6.63
2018-06-25T17:25:05.678Z,6.53
2018-06-25T17:29:10.423Z,7.80
2018-06-25T17:33:15.111Z,8.00
2018-06-25T17:37:19.806Z,7.63
2018-06-25T17:41:28.763Z,9.33
2018-06-25T17:45:32.754Z,9.10
2018-06-25T17:49:36.911Z,9.27
2018-06-25T17:53:40.703Z,7.43
2018-06-25T17:57:47.739Z,8.40
2018-06-25T18:02:26.607Z,8.53
2018-06-25T18:06:30.511Z,8.30
2018-06-25T18:10:33.890Z,8.17
2018-06-25T18:14:37.598Z,8.33
2018-06-25T18:18:41.476Z,7.87
2018-06-25T18:22:45.271Z,7.70
2018-06-25T18:26:49.990Z,8.10
2018-06-25T18:30:53.629Z,7.60
2018-06-25T18:34:58.629Z,6.90
2018-06-25T18:39:02.804Z,7.40
2018-06-25T18:43:06.498Z,8.10
2018-06-25T18:47:11.166Z,7.40
2018-06-25T18:51:16.301Z,7.63
2018-06-25T18:55:19.863Z,8.37
2018-06-25T18:59:27.843Z,8.47
2018-06-25T19:03:31.586Z,9.77
2018-06-25T19:07:36.536Z,9.30
2018-06-25T19:11:41.293Z,9.27
2018-06-25T19:15:44.935Z,9.47
2018-06-25T19:19:48.251Z,10.07
2018-06-25T19:23:56.694Z,10.20
2018-06-25T19:28:00.076Z,10.00
2018-06-25T19:32:03.771Z,10.50
2018-06-25T19:36:07.395Z,10.43
2018-06-25T19:40:11.583Z,10.53
2018-06-25T19:44:18.581Z,10.47
2018-06-25T19:48:22.193Z,11.40
2018-06-25T19:52:25.786Z,11.33
2018-06-25T19:56:29.416Z,10.90
2018-06-25T20:00:33.066Z,10.63
2018-06-25T20:04:36.812Z,10.23
2018-06-25T20:08:40.450Z,11.43
2018-06-25T20:12:44.199Z,11.03
2018-06-25T20:16:51.386Z,11.70
2018-06-25T20:20:56.168Z,10.53
2018-06-25T20:25:00.916Z,10.90
2018-06-25T20:29:05.221Z,10.97
2018-06-25T20:33:14.058Z,11.57
2018-06-25T20:37:19.787Z,11.50
2018-06-25T20:41:23.443Z,11.60
2018-06-25T20:45:27.214Z,12.10
2018-06-25T20:49:30.887Z,12.37
2018-06-25T20:53:34.642Z,11.90
2018-06-25T20:57:38.681Z,12.00
2018-06-25T21:01:45.573Z,12.97
2018-06-25T21:05:52.699Z,12.47
2018-06-25T21:09:56.505Z,12.23
2018-06-25T21:14:04.056Z,12.40
2018-06-25T21:18:07.894Z,12.17
2018-06-25T21:22:11.639Z,12.03
2018-06-25T21:26:15.494Z,13.27
2018-06-25T21:30:19.166Z,11.93
2018-06-25T21:34:23.818Z,13.00
2018-06-25T21:38:27.530Z,11.97
2018-06-25T21:42:31.082Z,12.63
2018-06-25T21:46:34.882Z,12.03
2018-06-25T21:50:38.893Z,12.67
2018-06-25T21:54:42.553Z,12.33
2018-06-25T21:58:46.203Z,12.73
2018-06-25T22:02:50.738Z,12.97
2018-06-25T22:07:00.962Z,13.27
2018-06-25T22:11:04.522Z,13.03
2018-06-25T22:15:11.402Z,13.20
2018-06-25T22:19:15.018Z,13.13
2018-06-25T22:23:18.755Z,13.10
2018-06-25T22:27:22.348Z,12.40
2018-06-25T22:31:26.496Z,13.73
2018-06-25T22:35:30.011Z,12.47
2018-06-25T22:39:43.566Z,13.03
2018-06-25T22:43:47.235Z,13.60
2018-06-25T22:47:50.958Z,12.60
2018-06-25T22:51:54.615Z,11.70
2018-06-25T22:55:58.187Z,13.77
2018-06-25T23:00:03.939Z,13.43
2018-06-25T23:04:07.554Z,12.60
2018-06-25T23:08:18.352Z,13.80
2018-06-25T23:12:21.928Z,13.80
2018-06-25T23:16:25.462Z,12.47
2018-06-25T23:20:29.039Z,12.47
2018-06-25T23:24:32.586Z,12.50
2018-06-25T23:28:37.214Z,13.23
2018-06-25T23:32:40.822Z,13.53
2018-06-25T23:36:44.418Z,13.07
2018-06-25T23:40:59.245Z,12.53
2018-06-25T23:45:02.884Z,12.43
2018-06-25T23:49:06.802Z,13.43
2018-06-25T23:53:10.476Z,12.97
2018-06-25T23:57:14.030Z,13.37
